Time;durP1;ratioP1;P1;durP2;ratioP2;P2;SDS_P1;SDS_P2;PMS_P1;PMS_P2;Temp;Humidity;BMP_temperature;BMP_pressure;BME280_temperature;BME280_humidity;BME280_pressure;Samples;Min_cycle;Max_cycle;Signal;HPM_P1;HPM_P2
2021/07/13 00:00:30;;;;;;;11.73;7.85;;;25.30;99.90;;;;;;5097349;28;20670;-75
2021/07/13 00:02:56;;;;;;;10.43;9.43;;;25.30;99.90;;;;;;5103350;28;20039;-75
2021/07/13 00:05:26;;;;;;;9.95;8.80;;;25.30;99.90;;;;;;5106861;28;20020;-76
2021/07/13 00:07:52;;;;;;;9.60;8.70;;;25.20;99.90;;;;;;5100737;28;20027;-74
2021/07/13 00:10:23;;;;;;;10.35;9.40;;;25.10;99.90;;;;;;5106051;28;20135;-74
2021/07/13 00:12:51;;;;;;;9.73;8.80;;;25.10;99.90;;;;;;5106810;28;20024;-74
2021/07/13 00:15:21;;;;;;;9.25;8.35;;;25.10;99.90;;;;;;5108498;28;20023;-74
2021/07/13 00:17:51;;;;;;;9.50;8.77;;;25.10;99.90;;;;;;5108172;28;20031;-74
2021/07/13 00:20:17;;;;;;;9.30;8.50;;;25.20;99.90;;;;;;5106963;28;20032;-74
2021/07/13 00:22:43;;;;;;;12.00;8.50;;;25.30;99.90;;;;;;5097114;28;20038;-75
2021/07/13 00:25:10;;;;;;;10.27;7.78;;;25.40;99.90;;;;;;5109978;28;20034;-75
2021/07/13 00:27:36;;;;;;;8.73;7.95;;;25.40;99.90;;;;;;5102155;28;20511;-75
2021/07/13 00:30:07;;;;;;;8.65;7.95;;;25.50;99.90;;;;;;5108038;28;20032;-75
2021/07/13 00:32:33;;;;;;;9.07;8.27;;;25.60;99.90;;;;;;5107814;28;20016;-75
2021/07/13 00:34:59;;;;;;;9.13;8.32;;;25.50;99.90;;;;;;5107186;28;20050;-74
2021/07/13 00:37:25;;;;;;;14.23;9.38;;;25.50;99.90;;;;;;5100512;28;20020;-74
2021/07/13 00:39:50;;;;;;;9.95;9.23;;;25.60;99.90;;;;;;5108519;28;20030;-74
2021/07/13 00:42:17;;;;;;;10.05;9.05;;;25.40;99.90;;;;;;5104556;28;20576;-74
2021/07/13 00:44:44;;;;;;;10.18;9.30;;;25.30;99.90;;;;;;5110034;28;20039;-74
2021/07/13 00:47:17;;;;;;;9.13;8.23;;;25.20;99.90;;;;;;5103690;28;20027;-74
2021/07/13 00:49:45;;;;;;;11.15;10.10;;;25.10;99.90;;;;;;5106656;28;20080;-74
2021/07/13 00:52:10;;;;;;;13.00;10.02;;;25.00;99.90;;;;;;5109915;28;20066;-75
2021/07/13 00:54:39;;;;;;;13.73;10.27;;;24.90;99.90;;;;;;5109448;28;20485;-74
2021/07/13 00:57:12;;;;;;;10.60;9.73;;;25.00;99.90;;;;;;5110117;28;20019;-75
2021/07/13 00:59:39;;;;;;;10.65;9.50;;;24.90;99.90;;;;;;5105573;28;20110;-74
2021/07/13 01:02:06;;;;;;;11.05;10.15;;;25.00;99.90;;;;;;5102835;28;20106;-74
2021/07/13 01:04:32;;;;;;;10.93;9.65;;;25.00;99.90;;;;;;5106772;28;20431;-74
2021/07/13 01:07:07;;;;;;;10.23;9.35;;;25.00;99.90;;;;;;5108645;28;20046;-74
2021/07/13 01:09:51;;;;;;;11.23;10.07;;;25.00;99.90;;;;;;5106748;28;20113;-74
2021/07/13 01:12:36;;;;;;;10.57;9.50;;;25.00;99.90;;;;;;5102530;28;20020;-74
2021/07/13 01:15:05;;;;;;;10.82;9.85;;;25.00;99.90;;;;;;5103380;28;20115;-74
2021/07/13 01:17:40;;;;;;;10.63;9.63;;;25.10;99.90;;;;;;5107861;28;20070;-75
2021/07/13 01:20:42;;;;;;;10.40;9.27;;;25.10;99.90;;;;;;5105395;28;20028;-75
2021/07/13 01:23:28;;;;;;;12.88;9.93;;;25.10;99.90;;;;;;5105954;28;20051;-75
2021/07/13 01:26:03;;;;;;;10.68;9.88;;;25.10;99.90;;;;;;5107012;28;20490;-75
2021/07/13 01:28:43;;;;;;;10.23;9.32;;;25.10;99.90;;;;;;5100747;28;20116;-74
2021/07/13 01:31:12;;;;;;;10.40;9.32;;;25.10;99.90;;;;;;5107532;28;20112;-74
2021/07/13 01:33:42;;;;;;;12.32;9.52;;;25.10;99.90;;;;;;5104962;28;20494;-74
2021/07/13 01:36:26;;;;;;;10.98;9.55;;;25.10;99.90;;;;;;5104949;28;20026;-75
2021/07/13 01:38:54;;;;;;;11.93;10.73;;;25.00;99.90;;;;;;5109426;28;20027;-74
2021/07/13 01:41:24;;;;;;;9.00;8.27;;;25.00;99.90;;;;;;5113070;28;20016;-75
2021/07/13 01:43:54;;;;;;;12.07;9.70;;;25.00;99.90;;;;;;5101588;28;20036;-74
2021/07/13 01:46:22;;;;;;;9.65;8.85;;;25.00;99.90;;;;;;5100392;28;20031;-73
2021/07/13 01:48:50;;;;;;;8.65;7.78;;;25.00;99.90;;;;;;5104866;28;20512;-75
2021/07/13 01:51:18;;;;;;;8.70;8.00;;;25.10;99.90;;;;;;5111081;28;20032;-75
2021/07/13 01:53:46;;;;;;;8.98;8.18;;;25.10;99.90;;;;;;5108830;28;20023;-75
2021/07/13 01:56:13;;;;;;;8.90;8.05;;;25.00;99.90;;;;;;5106207;28;20019;-72
2021/07/13 01:58:39;;;;;;;9.52;8.68;;;25.00;99.90;;;;;;5104871;28;20024;-74
2021/07/13 02:01:10;;;;;;;8.98;7.82;;;25.00;99.90;;;;;;5102205;28;20095;-75
2021/07/13 02:03:37;;;;;;;8.85;7.30;;;25.00;99.90;;;;;;5104785;28;20032;-74
2021/07/13 02:06:05;;;;;;;8.25;7.55;;;25.00;99.90;;;;;;5108039;28;20127;-73
2021/07/13 02:08:36;;;;;;;8.02;7.38;;;25.00;99.90;;;;;;5108841;28;20088;-73
2021/07/13 02:11:02;;;;;;;11.65;7.25;;;25.00;99.90;;;;;;5108200;28;20027;-73
2021/07/13 02:13:30;;;;;;;8.52;7.72;;;24.90;99.90;;;;;;5107467;28;20039;-74
2021/07/13 02:15:59;;;;;;;9.93;6.95;;;24.90;99.90;;;;;;5107315;28;20030;-74
2021/07/13 02:18:25;;;;;;;6.97;6.47;;;24.90;99.90;;;;;;5109487;28;20110;-74
2021/07/13 02:20:51;;;;;;;9.20;7.43;;;24.90;99.90;;;;;;5094218;28;20594;-74
2021/07/13 02:23:17;;;;;;;8.35;6.40;;;25.00;99.90;;;;;;5106168;28;20027;-73
2021/07/13 02:25:45;;;;;;;7.40;6.47;;;25.00;99.90;;;;;;5109378;28;21353;-73
2021/07/13 02:28:25;;;;;;;8.07;6.60;;;25.00;99.90;;;;;;5099367;28;20028;-73
2021/07/13 02:30:57;;;;;;;6.97;6.47;;;25.10;99.90;;;;;;5098050;28;20543;-73
2021/07/13 02:33:40;;;;;;;7.00;6.30;;;25.00;99.90;;;;;;5109062;28;20152;-74
2021/07/13 02:36:14;;;;;;;8.15;6.05;;;24.90;99.90;;;;;;5102813;28;20435;-74
2021/07/13 02:38:41;;;;;;;10.15;6.90;;;24.80;99.90;;;;;;5098935;28;20051;-73
2021/07/13 02:41:07;;;;;;;7.43;6.82;;;24.80;99.90;;;;;;5110626;28;20084;-73
2021/07/13 02:43:35;;;;;;;7.07;6.43;;;24.80;99.90;;;;;;5108378;28;20501;-73
2021/07/13 02:46:01;;;;;;;7.22;6.53;;;24.70;99.90;;;;;;5109000;28;20024;-74
2021/07/13 02:48:27;;;;;;;10.90;6.60;;;24.70;99.90;;;;;;5110618;27;20019;-74
2021/07/13 02:50:56;;;;;;;7.18;6.43;;;24.70;99.90;;;;;;5096334;28;20023;-74
2021/07/13 02:53:24;;;;;;;7.53;6.82;;;24.70;99.90;;;;;;5106547;28;20022;-74
2021/07/13 02:55:51;;;;;;;7.20;6.55;;;24.80;99.90;;;;;;5106717;28;20055;-74
2021/07/13 02:58:19;;;;;;;7.13;6.43;;;24.80;99.90;;;;;;5106518;28;20424;-74
2021/07/13 03:00:46;;;;;;;8.85;6.18;;;24.70;99.90;;;;;;5104126;28;20038;-74
2021/07/13 03:03:11;;;;;;;7.07;6.47;;;24.80;99.90;;;;;;5104345;28;20028;-74
2021/07/13 03:05:38;;;;;;;5.60;4.95;;;24.70;99.90;;;;;;5098439;28;20378;-74
2021/07/13 03:08:04;;;;;;;7.15;5.85;;;24.60;99.90;;;;;;5101484;28;20039;-73
2021/07/13 03:10:32;;;;;;;6.13;5.50;;;24.70;99.90;;;;;;5103253;28;20031;-74
2021/07/13 03:12:58;;;;;;;5.72;5.22;;;24.80;99.90;;;;;;5103784;28;20474;-74
2021/07/13 03:15:28;;;;;;;5.65;5.15;;;24.90;99.90;;;;;;5103071;28;20107;-73
2021/07/13 03:17:54;;;;;;;6.07;5.57;;;24.80;99.90;;;;;;5107428;28;20431;-73
2021/07/13 03:20:22;;;;;;;8.80;5.65;;;24.80;99.90;;;;;;5110629;28;20031;-74
2021/07/13 03:22:50;;;;;;;6.70;5.60;;;24.70;99.90;;;;;;5107358;28;20028;-73
2021/07/13 03:25:27;;;;;;;6.82;5.35;;;24.60;99.90;;;;;;5096598;28;20089;-72
2021/07/13 03:27:54;;;;;;;5.53;5.13;;;24.60;99.90;;;;;;5107770;28;20099;-74
2021/07/13 03:30:21;;;;;;;8.10;6.35;;;24.70;99.90;;;;;;5096531;28;20257;-73
2021/07/13 03:32:49;;;;;;;7.05;5.97;;;24.70;99.90;;;;;;5098156;28;20076;-73
2021/07/13 03:35:16;;;;;;;8.55;6.82;;;24.70;99.90;;;;;;5103363;28;20024;-73
2021/07/13 03:37:42;;;;;;;10.68;6.28;;;24.70;99.90;;;;;;5101231;28;20550;-73
2021/07/13 03:40:09;;;;;;;10.02;5.93;;;24.70;99.90;;;;;;5108573;28;20023;-73
2021/07/13 03:42:35;;;;;;;6.10;5.18;;;24.80;99.90;;;;;;5106006;28;20553;-74
2021/07/13 03:45:01;;;;;;;9.15;5.15;;;24.80;99.90;;;;;;5106330;28;20148;-75
2021/07/13 03:47:26;;;;;;;10.20;5.30;;;24.90;99.90;;;;;;5104228;28;20052;-73
2021/07/13 03:49:53;;;;;;;6.05;5.05;;;24.90;99.90;;;;;;5104705;28;20050;-74
2021/07/13 03:52:18;;;;;;;5.88;5.00;;;25.00;99.90;;;;;;5108141;28;20032;-74
2021/07/13 03:54:45;;;;;;;5.10;4.03;;;25.10;99.90;;;;;;5104382;28;20031;-73
2021/07/13 03:57:11;;;;;;;13.32;3.88;;;25.20;99.90;;;;;;5099123;28;20023;-74
2021/07/13 03:59:37;;;;;;;7.53;3.83;;;25.30;99.90;;;;;;5097869;28;20043;-74
2021/07/13 04:02:03;;;;;;;7.97;4.63;;;25.40;99.90;;;;;;5101562;28;20021;-73
2021/07/13 04:04:29;;;;;;;7.03;4.72;;;25.40;99.90;;;;;;5103677;28;20697;-73
2021/07/13 04:07:00;;;;;;;5.80;3.85;;;25.50;99.90;;;;;;5107728;28;20035;-75
2021/07/13 04:09:27;;;;;;;;;;;25.60;99.90;;;;;;5099419;28;20111;-75
2021/07/13 04:11:54;;;;;;;5.90;3.78;;;25.60;99.90;;;;;;5097760;28;19911;-75
2021/07/13 04:14:19;;;;;;;4.22;3.78;;;25.60;99.90;;;;;;5103111;28;20024;-74
2021/07/13 04:16:55;;;;;;;8.02;4.53;;;25.70;99.90;;;;;;5100345;28;20038;-74
2021/07/13 04:19:21;;;;;;;5.28;3.58;;;25.70;99.90;;;;;;5106422;28;20115;-74
2021/07/13 04:21:47;;;;;;;6.70;3.70;;;25.80;99.90;;;;;;5106140;28;20477;-73
2021/07/13 04:24:12;;;;;;;5.05;4.40;;;25.80;99.90;;;;;;5101946;28;20038;-73
2021/07/13 04:26:38;;;;;;;5.45;4.18;;;25.80;99.90;;;;;;5105195;28;20427;-73
2021/07/13 04:29:04;;;;;;;5.85;4.72;;;25.90;99.90;;;;;;5100610;28;20043;-73
2021/07/13 04:31:30;;;;;;;9.25;5.00;;;25.90;99.90;;;;;;5105463;28;20115;-73
2021/07/13 04:33:56;;;;;;;4.50;4.20;;;26.00;99.90;;;;;;5106359;28;20020;-73
2021/07/13 04:36:22;;;;;;;9.45;4.65;;;26.00;99.90;;;;;;5099648;28;20020;-74
2021/07/13 04:38:48;;;;;;;24.75;4.65;;;26.10;99.90;;;;;;5105937;28;20558;-74
2021/07/13 04:41:13;;;;;;;7.13;5.07;;;26.10;99.90;;;;;;5100951;28;20122;-74
2021/07/13 04:43:39;;;;;;;6.85;4.60;;;26.10;99.90;;;;;;5102822;28;20122;-74
2021/07/13 04:46:05;;;;;;;6.03;5.10;;;26.20;99.90;;;;;;5106863;28;20073;-74
2021/07/13 04:48:30;;;;;;;5.10;4.70;;;26.30;99.90;;;;;;5101731;28;20040;-74
2021/07/13 04:50:56;;;;;;;6.72;4.35;;;26.30;99.90;;;;;;5104173;28;20124;-73
2021/07/13 04:53:22;;;;;;;12.43;8.77;;;26.40;99.90;;;;;;5102806;28;20055;-73
2021/07/13 04:55:47;;;;;;;7.00;5.47;;;26.40;99.90;;;;;;5101390;28;20030;-73
2021/07/13 04:58:13;;;;;;;6.07;4.80;;;26.40;99.90;;;;;;5105642;28;20521;-75
2021/07/13 05:00:39;;;;;;;6.13;4.63;;;26.50;99.90;;;;;;5108510;28;20027;-76
2021/07/13 05:03:05;;;;;;;7.82;5.00;;;26.50;99.90;;;;;;5103080;28;20117;-76
2021/07/13 05:05:31;;;;;;;9.35;6.72;;;26.50;99.90;;;;;;5107126;28;20059;-76
2021/07/13 05:07:56;;;;;;;16.08;6.05;;;26.60;99.90;;;;;;5111225;28;20035;-76
2021/07/13 05:10:22;;;;;;;6.78;5.43;;;26.80;99.90;;;;;;5112520;28;20489;-75
2021/07/13 05:12:48;;;;;;;6.60;5.68;;;26.80;99.90;;;;;;5108703;28;20111;-76
2021/07/13 05:15:15;;;;;;;7.93;5.93;;;26.80;99.90;;;;;;5109681;28;20053;-76
2021/07/13 05:17:41;;;;;;;10.63;5.78;;;26.90;99.90;;;;;;5106956;28;20051;-76
2021/07/13 05:20:09;;;;;;;10.98;5.05;;;27.00;99.90;;;;;;5111473;28;20106;-76
2021/07/13 05:22:35;;;;;;;8.20;5.07;;;27.20;99.90;;;;;;5103154;28;20450;-77
2021/07/13 05:25:08;;;;;;;10.18;5.10;;;27.10;99.90;;;;;;5104561;28;20113;-76
2021/07/13 05:27:50;;;;;;;7.50;5.47;;;27.10;99.90;;;;;;5097634;28;20052;-78
2021/07/13 05:30:18;;;;;;;;;;;27.10;99.90;;;;;;5099744;28;20027;-76
2021/07/13 05:32:44;;;;;;;6.38;4.50;;;27.10;99.90;;;;;;5102885;28;19998;-76
2021/07/13 05:35:10;;;;;;;16.52;5.22;;;27.20;99.90;;;;;;5110990;28;20516;-77
2021/07/13 05:37:37;;;;;;;13.95;6.22;;;27.20;99.90;;;;;;5108330;27;20036;-77
2021/07/13 05:40:05;;;;;;;14.80;5.18;;;27.20;99.90;;;;;;5110559;27;20051;-76
2021/07/13 05:42:31;;;;;;;6.38;5.30;;;27.20;99.90;;;;;;5111323;28;20148;-76
2021/07/13 05:44:57;;;;;;;12.95;5.50;;;27.30;99.90;;;;;;5114008;28;20051;-75
2021/07/13 05:47:23;;;;;;;4.80;4.30;;;27.40;99.90;;;;;;5106206;28;20059;-77
2021/07/13 05:49:48;;;;;;;6.03;4.22;;;27.50;99.90;;;;;;5110738;28;20027;-77
2021/07/13 05:52:14;;;;;;;5.88;5.35;;;27.60;99.90;;;;;;5110143;28;20477;-78
2021/07/13 05:54:40;;;;;;;14.98;4.78;;;27.70;99.90;;;;;;5111922;28;20516;-77
2021/07/13 05:57:06;;;;;;;9.05;6.00;;;27.90;99.90;;;;;;5111703;28;20688;-77
2021/07/13 05:59:31;;;;;;;9.13;4.70;;;28.10;99.90;;;;;;5106781;28;20026;-77
2021/07/13 06:01:57;;;;;;;8.52;5.03;;;28.10;99.90;;;;;;5109923;28;20011;-78
2021/07/13 06:04:23;;;;;;;8.25;4.95;;;28.20;99.90;;;;;;5112077;28;20023;-68
2021/07/13 06:06:48;;;;;;;10.68;5.07;;;28.20;99.90;;;;;;5107416;28;20020;-69
2021/07/13 06:09:14;;;;;;;13.73;5.35;;;28.30;99.90;;;;;;5108334;28;20020;-69
2021/07/13 06:11:40;;;;;;;9.43;5.60;;;28.30;99.90;;;;;;5106910;28;20477;-67
2021/07/13 06:14:06;;;;;;;11.43;5.32;;;28.30;99.90;;;;;;5105882;28;20493;-68
2021/07/13 06:16:32;;;;;;;11.02;5.45;;;28.30;99.90;;;;;;5107612;28;20031;-66
2021/07/13 06:18:58;;;;;;;22.80;13.13;;;28.30;99.90;;;;;;5110655;28;20032;-65
2021/07/13 06:21:26;;;;;;;21.00;15.30;;;28.30;99.90;;;;;;5111491;28;20020;-67
2021/07/13 06:23:52;;;;;;;13.45;12.13;;;28.30;99.90;;;;;;5110728;28;20081;-66
2021/07/13 06:26:18;;;;;;;10.00;8.13;;;28.30;99.90;;;;;;5107690;28;20028;-68
2021/07/13 06:28:44;;;;;;;14.93;9.75;;;28.30;99.90;;;;;;5108644;28;20035;-67
2021/07/13 06:31:09;;;;;;;10.32;6.30;;;28.40;99.90;;;;;;5110031;28;20023;-66
2021/07/13 06:33:36;;;;;;;12.93;7.65;;;28.40;99.90;;;;;;5110004;28;20027;-65
2021/07/13 06:36:02;;;;;;;6.28;5.57;;;28.40;99.90;;;;;;5107134;28;20147;-68
2021/07/13 06:38:28;;;;;;;6.38;4.90;;;28.40;99.90;;;;;;5105600;28;20123;-67
2021/07/13 06:40:53;;;;;;;9.40;5.18;;;28.30;99.90;;;;;;5100373;28;20106;-67
2021/07/13 06:43:19;;;;;;;5.97;4.85;;;28.30;99.90;;;;;;5108111;28;20034;-67
2021/07/13 06:45:45;;;;;;;13.68;7.00;;;28.20;99.90;;;;;;5103091;28;20146;-66
2021/07/13 06:48:11;;;;;;;8.82;5.00;;;28.20;99.90;;;;;;5108703;28;20028;-68
2021/07/13 06:50:36;;;;;;;9.10;5.35;;;28.30;99.90;;;;;;5105419;28;20397;-69
2021/07/13 06:53:02;;;;;;;7.88;5.18;;;28.30;99.90;;;;;;5107500;28;20019;-69
2021/07/13 06:55:28;;;;;;;13.65;5.68;;;28.20;99.90;;;;;;5106880;28;20024;-67
2021/07/13 06:57:54;;;;;;;9.35;4.90;;;28.20;99.90;;;;;;5107706;28;20027;-67
2021/07/13 07:00:19;;;;;;;8.52;5.97;;;28.10;99.90;;;;;;5103968;28;20736;-68
2021/07/13 07:02:45;;;;;;;8.95;5.47;;;28.20;99.90;;;;;;5106306;28;20233;-68
2021/07/13 07:05:11;;;;;;;9.95;4.63;;;28.30;99.90;;;;;;5110458;28;20069;-67
2021/07/13 07:07:48;;;;;;;7.47;4.57;;;28.10;99.90;;;;;;5105763;28;20500;-68
2021/07/13 07:10:15;;;;;;;5.05;4.35;;;28.00;99.90;;;;;;5109609;28;20024;-66
2021/07/13 07:12:41;;;;;;;8.23;4.63;;;28.10;99.90;;;;;;5104776;28;20023;-66
2021/07/13 07:15:08;;;;;;;9.00;4.45;;;28.10;99.90;;;;;;5107503;28;20019;-66
2021/07/13 07:17:45;;;;;;;10.35;4.70;;;28.10;99.90;;;;;;5104535;27;20385;-66
2021/07/13 07:20:12;;;;;;;10.25;4.65;;;28.10;99.90;;;;;;5093924;28;20023;-67
2021/07/13 07:22:37;;;;;;;9.60;4.35;;;28.30;99.90;;;;;;5096370;28;20028;-68
2021/07/13 07:25:04;;;;;;;7.97;3.90;;;28.20;99.90;;;;;;5097113;28;20387;-68
2021/07/13 07:27:30;;;;;;;10.60;4.32;;;28.30;99.90;;;;;;5099655;28;20031;-66
2021/07/13 07:29:56;;;;;;;4.88;3.83;;;28.30;99.90;;;;;;5100959;28;20040;-68
2021/07/13 07:32:21;;;;;;;8.68;4.40;;;28.40;99.90;;;;;;5106612;28;20031;-72
2021/07/13 07:34:47;;;;;;;6.03;3.60;;;28.50;99.90;;;;;;5095625;28;20597;-73
2021/07/13 07:37:15;;;;;;;5.82;3.63;;;28.80;99.90;;;;;;5105967;28;20477;-72
2021/07/13 07:39:41;;;;;;;3.65;2.97;;;29.20;99.90;;;;;;5110444;28;20627;-73
2021/07/13 07:42:08;;;;;;;6.57;4.00;;;29.50;99.90;;;;;;5104528;28;20052;-73
2021/07/13 07:44:36;;;;;;;8.52;3.50;;;29.90;99.90;;;;;;5104535;28;20385;-72
2021/07/13 07:47:01;;;;;;;6.57;4.68;;;30.10;99.90;;;;;;5099614;28;20083;-73
2021/07/13 07:49:27;;;;;;;5.07;3.97;;;30.30;99.90;;;;;;5107695;28;20028;-73
2021/07/13 07:51:53;;;;;;;4.32;3.13;;;30.40;99.90;;;;;;5109413;28;20023;-72
2021/07/13 07:54:18;;;;;;;6.10;2.88;;;30.60;99.90;;;;;;5106588;28;20031;-72
2021/07/13 07:56:44;;;;;;;6.15;3.30;;;30.70;99.90;;;;;;5103377;28;20019;-72
2021/07/13 07:59:10;;;;;;;4.05;2.75;;;30.70;99.90;;;;;;5109895;28;20020;-71
2021/07/13 08:01:35;;;;;;;3.25;2.92;;;30.90;99.90;;;;;;5104403;28;20031;-71
2021/07/13 08:04:01;;;;;;;6.72;3.63;;;31.00;99.90;;;;;;5106494;28;20040;-70
2021/07/13 08:06:27;;;;;;;9.80;4.80;;;31.20;99.90;;;;;;5105245;28;20448;-75
2021/07/13 08:08:53;;;;;;;5.90;4.25;;;31.50;99.90;;;;;;5108139;28;20392;-72
2021/07/13 08:11:18;;;;;;;6.88;3.90;;;31.50;99.90;;;;;;5109101;28;20102;-72
2021/07/13 08:13:44;;;;;;;10.23;3.67;;;31.50;99.90;;;;;;5108896;28;20366;-74
2021/07/13 08:16:10;;;;;;;7.78;3.55;;;31.10;99.90;;;;;;5102925;28;20107;-72
2021/07/13 08:18:35;;;;;;;8.02;4.20;;;30.70;99.90;;;;;;5105054;28;20711;-73
2021/07/13 08:21:01;;;;;;;12.07;3.88;;;30.60;99.90;;;;;;5109022;28;20027;-76
2021/07/13 08:23:30;;;;;;;11.30;3.88;;;30.70;99.90;;;;;;5106198;28;20081;-74
2021/07/13 08:26:01;;;;;;;7.90;3.05;;;30.80;99.90;;;;;;5099503;28;20023;-72
2021/07/13 08:28:27;;;;;;;9.68;4.40;;;31.00;99.90;;;;;;5103831;28;20032;-71
2021/07/13 08:30:52;;;;;;;6.15;3.05;;;30.90;99.90;;;;;;5093704;28;20032;-74
2021/07/13 08:33:18;;;;;;;8.43;3.00;;;30.90;99.90;;;;;;5099783;27;20019;-71
2021/07/13 08:35:44;;;;;;;14.75;3.53;;;31.10;99.90;;;;;;5100776;28;20019;-72
2021/07/13 08:38:10;;;;;;;6.85;3.10;;;31.00;99.90;;;;;;5109332;27;20017;-70
2021/07/13 08:40:38;;;;;;;6.10;4.03;;;31.00;99.90;;;;;;5108111;28;20493;-72
2021/07/13 08:43:04;;;;;;;3.83;2.92;;;31.00;99.90;;;;;;5100830;28;20050;-74
2021/07/13 08:45:30;;;;;;;8.00;3.97;;;30.80;99.90;;;;;;5098423;28;20051;-70
2021/07/13 08:47:56;;;;;;;8.35;3.50;;;30.70;99.90;;;;;;5102682;28;20039;-72
2021/07/13 08:50:22;;;;;;;6.80;3.55;;;30.70;99.90;;;;;;5096889;28;20032;-72
2021/07/13 08:52:48;;;;;;;6.53;3.47;;;30.70;99.90;;;;;;5100454;28;20044;-73
2021/07/13 08:55:14;;;;;;;6.38;3.25;;;30.90;99.90;;;;;;5105020;28;20058;-71
2021/07/13 08:57:42;;;;;;;8.95;3.63;;;31.10;99.90;;;;;;5109709;27;20019;-71
2021/07/13 09:00:12;;;;;;;14.80;4.55;;;31.30;99.90;;;;;;5111396;28;20024;-72
2021/07/13 09:03:06;;;;;;;7.05;3.63;;;31.40;99.90;;;;;;5105586;28;20489;-70
2021/07/13 09:05:43;;;;;;;7.45;3.85;;;31.20;99.90;;;;;;5104653;28;20042;-70
2021/07/13 09:08:18;;;;;;;4.65;3.45;;;31.00;99.90;;;;;;5111194;28;20054;-69
2021/07/13 09:11:10;;;;;;;8.98;3.13;;;31.10;99.90;;;;;;5111323;28;20121;-70
2021/07/13 09:13:41;;;;;;;14.50;3.65;;;30.90;99.90;;;;;;5103047;28;20111;-70
2021/07/13 09:16:33;;;;;;;7.10;3.97;;;31.10;99.90;;;;;;5102095;28;20020;-71
2021/07/13 09:19:00;;;;;;;16.15;3.40;;;31.30;99.90;;;;;;5100916;28;20032;-68
2021/07/13 09:21:33;;;;;;;13.70;3.75;;;31.50;99.90;;;;;;5107673;28;20342;-71
2021/07/13 09:24:21;;;;;;;6.40;3.55;;;31.50;99.90;;;;;;5108189;28;20059;-69
2021/07/13 09:27:00;;;;;;;11.30;3.22;;;31.20;99.90;;;;;;5105364;28;20515;-70
2021/07/13 09:29:35;;;;;;;5.53;3.30;;;31.00;99.90;;;;;;5104532;28;20027;-69
2021/07/13 09:32:32;;;;;;;9.85;4.00;;;31.10;99.90;;;;;;5101401;28;20440;-69
2021/07/13 09:35:14;;;;;;;9.90;4.20;;;31.40;99.90;;;;;;5099731;28;20019;-70
2021/07/13 09:37:47;;;;;;;8.27;3.55;;;31.60;99.90;;;;;;5110172;28;20024;-71
2021/07/13 09:40:18;;;;;;;8.05;4.25;;;31.80;99.90;;;;;;5111492;28;20412;-72
2021/07/13 09:42:51;;;;;;;8.05;4.47;;;32.10;99.90;;;;;;5103253;28;20110;-70
2021/07/13 09:45:25;;;;;;;12.73;3.60;;;32.40;99.90;;;;;;5110770;28;20039;-70
2021/07/13 09:47:56;;;;;;;5.57;3.58;;;32.00;99.90;;;;;;5104220;28;20031;-70
2021/07/13 09:50:51;;;;;;;4.47;3.47;;;31.60;99.90;;;;;;5109244;28;20035;-70
2021/07/13 09:53:22;;;;;;;12.13;5.10;;;31.30;99.90;;;;;;5103286;28;20039;-71
2021/07/13 09:55:49;;;;;;;13.02;4.25;;;31.10;99.90;;;;;;5102487;28;20016;-70
2021/07/13 09:58:21;;;;;;;10.65;3.42;;;31.10;99.90;;;;;;5109484;28;20028;-71
2021/07/13 10:00:49;;;;;;;12.88;4.00;;;31.00;99.90;;;;;;5109776;28;20083;-70
2021/07/13 10:03:17;;;;;;;8.82;4.00;;;31.10;99.90;;;;;;5106305;28;20027;-72
2021/07/13 10:05:45;;;;;;;6.90;3.53;;;31.10;99.90;;;;;;5104037;28;20035;-70
2021/07/13 10:08:15;;;;;;;5.65;3.17;;;31.40;99.90;;;;;;5109146;28;20034;-70
2021/07/13 10:10:42;;;;;;;10.43;4.05;;;31.50;99.90;;;;;;5111055;28;20027;-70
2021/07/13 10:13:10;;;;;;;3.72;3.35;;;31.60;99.90;;;;;;5109103;28;20461;-71
2021/07/13 10:15:36;;;;;;;6.82;3.28;;;31.80;99.90;;;;;;5105153;28;20428;-70
2021/07/13 10:18:03;;;;;;;8.80;4.00;;;32.10;99.90;;;;;;5110152;28;20039;-68
2021/07/13 10:20:31;;;;;;;15.93;4.63;;;32.00;99.90;;;;;;5101180;27;20031;-70
2021/07/13 10:22:59;;;;;;;15.20;4.70;;;31.80;99.90;;;;;;5106757;28;20034;-70
2021/07/13 10:25:39;;;;;;;10.25;4.03;;;31.60;99.90;;;;;;5107840;28;20372;-70
2021/07/13 10:28:06;;;;;;;10.45;3.72;;;31.50;99.90;;;;;;5104550;28;20035;-70
2021/07/13 10:30:31;;;;;;;5.03;3.17;;;31.40;99.90;;;;;;5105875;28;20115;-71
2021/07/13 10:32:58;;;;;;;10.82;4.50;;;31.30;99.90;;;;;;5104603;28;20110;-71
2021/07/13 10:35:31;;;;;;;5.25;3.47;;;31.40;99.90;;;;;;5104489;28;20031;-70
2021/07/13 10:38:21;;;;;;;8.18;3.80;;;31.50;99.90;;;;;;5110251;28;20027;-72
2021/07/13 10:40:48;;;;;;;8.63;3.63;;;31.60;99.90;;;;;;5102790;28;20035;-70
2021/07/13 10:43:19;;;;;;;6.18;3.58;;;31.80;99.90;;;;;;5111183;28;20016;-70
2021/07/13 10:45:46;;;;;;;5.18;3.67;;;32.00;99.90;;;;;;5107032;28;20027;-71
2021/07/13 10:48:21;;;;;;;7.47;3.17;;;32.10;99.90;;;;;;5106753;28;20015;-74
2021/07/13 10:50:54;;;;;;;9.18;3.40;;;32.10;99.90;;;;;;5105837;28;20067;-69
2021/07/13 10:53:23;;;;;;;6.78;3.97;;;32.10;99.90;;;;;;5100714;28;20046;-70
2021/07/13 10:56:18;;;;;;;8.48;4.30;;;32.30;99.90;;;;;;5105419;28;20661;-71
2021/07/13 10:58:51;;;;;;;10.48;3.83;;;32.40;99.90;;;;;;5105635;28;20015;-70
2021/07/13 11:01:24;;;;;;;7.45;3.97;;;32.40;99.90;;;;;;5099103;28;20035;-72
2021/07/13 11:03:58;;;;;;;7.05;3.85;;;32.10;99.90;;;;;;5104127;28;20489;-67
2021/07/13 11:06:55;;;;;;;5.75;3.90;;;31.80;99.90;;;;;;5110536;28;20020;-68
2021/07/13 11:09:29;;;;;;;10.25;4.00;;;31.50;99.90;;;;;;5080845;28;20477;-70
2021/07/13 11:12:03;;;;;;;4.18;3.15;;;31.20;99.90;;;;;;5109787;28;20050;-67
2021/07/13 11:14:29;;;;;;;7.90;3.92;;;31.00;99.90;;;;;;5109522;28;20024;-68
2021/07/13 11:16:55;;;;;;;10.23;7.45;;;31.10;99.90;;;;;;5105938;28;20026;-68
2021/07/13 11:19:21;;;;;;;11.57;5.80;;;31.20;99.90;;;;;;5105835;28;20027;-67
2021/07/13 11:21:51;;;;;;;8.60;4.65;;;31.10;99.90;;;;;;5110203;28;20036;-67
2021/07/13 11:24:19;;;;;;;4.95;3.63;;;31.20;99.90;;;;;;5107409;28;20034;-66
2021/07/13 11:26:49;;;;;;;12.43;4.75;;;31.00;99.90;;;;;;5109997;28;20034;-67
2021/07/13 11:29:24;;;;;;;7.88;4.40;;;30.90;99.90;;;;;;5107973;28;20023;-68
2021/07/13 11:31:57;;;;;;;16.27;7.07;;;30.40;99.90;;;;;;5106029;28;20465;-68
2021/07/13 11:34:23;;;;;;;5.45;4.18;;;30.10;99.90;;;;;;5101712;28;20019;-68
2021/07/13 11:36:53;;;;;;;8.95;4.60;;;30.10;99.90;;;;;;5107778;28;20034;-66
2021/07/13 11:39:33;;;;;;;6.95;4.47;;;30.00;99.90;;;;;;5099258;28;20032;-70
2021/07/13 11:42:08;;;;;;;4.72;3.88;;;29.90;99.90;;;;;;5106059;28;20051;-67
2021/07/13 11:44:35;;;;;;;6.18;3.92;;;29.70;99.90;;;;;;5104020;28;20103;-65
2021/07/13 11:47:03;;;;;;;4.85;4.07;;;29.60;99.90;;;;;;5106355;28;20047;-67
2021/07/13 11:49:32;;;;;;;6.82;4.25;;;29.50;99.90;;;;;;5109669;28;20018;-68
2021/07/13 11:51:58;;;;;;;4.80;4.25;;;29.40;99.90;;;;;;5104287;28;20519;-66
2021/07/13 11:54:34;;;;;;;8.50;3.97;;;29.50;99.90;;;;;;5106601;28;20020;-68
2021/07/13 11:57:04;;;;;;;7.80;4.45;;;29.90;99.90;;;;;;5104395;27;20028;-68
2021/07/13 11:59:38;;;;;;;4.78;3.83;;;30.00;99.90;;;;;;5107509;28;20055;-67
2021/07/13 12:02:07;;;;;;;6.53;4.22;;;30.10;99.90;;;;;;5094421;28;20550;-66
2021/07/13 12:04:41;;;;;;;12.25;5.20;;;30.30;99.90;;;;;;5099909;28;20020;-67
2021/07/13 12:07:08;;;;;;;7.35;4.10;;;30.40;99.90;;;;;;5105011;28;20044;-68
2021/07/13 12:09:36;;;;;;;8.45;3.85;;;30.80;99.90;;;;;;5106467;28;20024;-67
2021/07/13 12:12:13;;;;;;;8.20;3.88;;;31.10;99.90;;;;;;5113162;28;20032;-67
2021/07/13 12:14:46;;;;;;;8.05;4.43;;;31.40;99.90;;;;;;5110335;28;20096;-67
2021/07/13 12:17:14;;;;;;;9.38;4.50;;;31.40;99.90;;;;;;5100398;28;20026;-67
2021/07/13 12:19:40;;;;;;;4.97;4.38;;;31.30;99.90;;;;;;5114543;28;20024;-68
2021/07/13 12:22:08;;;;;;;5.68;3.83;;;31.20;99.90;;;;;;5113084;28;20382;-69
2021/07/13 12:24:40;;;;;;;10.20;5.30;;;31.20;99.90;;;;;;5113001;28;20175;-68
2021/07/13 12:27:12;;;;;;;10.20;5.72;;;31.20;99.90;;;;;;5116314;27;20047;-68
2021/07/13 12:29:54;;;;;;;5.18;4.07;;;31.10;99.90;;;;;;5109188;28;20024;-68
2021/07/13 12:32:30;;;;;;;5.03;4.45;;;31.20;99.90;;;;;;5108268;28;20385;-68
2021/07/13 12:34:56;;;;;;;8.15;3.85;;;31.10;99.90;;;;;;5111121;28;20478;-68
2021/07/13 12:37:23;;;;;;;9.35;4.57;;;31.10;99.90;;;;;;5112731;28;20077;-67
2021/07/13 12:40:00;;;;;;;6.70;3.50;;;31.10;99.90;;;;;;5110873;28;20077;-66
2021/07/13 12:42:29;;;;;;;5.80;4.25;;;31.00;99.90;;;;;;5112046;28;20031;-68
2021/07/13 12:45:02;;;;;;;6.97;4.20;;;31.10;99.90;;;;;;5112170;28;20694;-68
2021/07/13 12:47:33;;;;;;;8.10;4.35;;;31.10;99.90;;;;;;5111109;28;20486;-68
2021/07/13 12:50:23;;;;;;;4.55;3.90;;;31.00;99.90;;;;;;5109527;27;20039;-68
2021/07/13 12:53:04;;;;;;;6.80;4.43;;;31.10;99.90;;;;;;5103574;28;20035;-70